sensor_id;sensor_type;location;lat;lon;timestamp;temperature;humidity
25360;DHT22;13311;51.386;0.016;2022-09-23T00:01:54;19.30;91.10
25360;DHT22;13311;51.386;0.016;2022-09-23T00:06:56;19.30;91.20
25360;DHT22;13311;51.386;0.016;2022-09-23T00:11:56;19.20;91.40
25360;DHT22;13311;51.386;0.016;2022-09-23T00:16:57;19.20;91.40
25360;DHT22;13311;51.386;0.016;2022-09-23T00:21:58;19.20;91.60
25360;DHT22;13311;51.386;0.016;2022-09-23T00:26:59;19.20;91.60
25360;DHT22;13311;51.386;0.016;2022-09-23T00:32:00;19.10;91.70
25360;DHT22;13311;51.386;0.016;2022-09-23T00:37:02;19.20;91.60
25360;DHT22;13311;51.386;0.016;2022-09-23T00:42:02;19.20;91.70
25360;DHT22;13311;51.386;0.016;2022-09-23T00:47:03;19.10;91.80
25360;DHT22;13311;51.386;0.016;2022-09-23T00:52:11;19.00;92.10
25360;DHT22;13311;51.386;0.016;2022-09-23T00:57:15;18.90;92.40
25360;DHT22;13311;51.386;0.016;2022-09-23T01:02:19;18.90;92.60
25360;DHT22;13311;51.386;0.016;2022-09-23T01:07:23;18.90;92.50
25360;DHT22;13311;51.386;0.016;2022-09-23T01:29:01;19.00;92.20
25360;DHT22;13311;51.386;0.016;2022-09-23T01:34:46;18.90;92.30
25360;DHT22;13311;51.386;0.016;2022-09-23T01:40:18;18.90;92.30
25360;DHT22;13311;51.386;0.016;2022-09-23T01:45:30;18.80;92.30
25360;DHT22;13311;51.386;0.016;2022-09-23T01:50:40;18.80;92.50
25360;DHT22;13311;51.386;0.016;2022-09-23T01:55:59;18.80;92.50
25360;DHT22;13311;51.386;0.016;2022-09-23T02:01:06;18.80;92.50
25360;DHT22;13311;51.386;0.016;2022-09-23T02:06:20;18.80;92.50
25360;DHT22;13311;51.386;0.016;2022-09-23T02:11:23;18.90;92.60
25360;DHT22;13311;51.386;0.016;2022-09-23T02:16:43;18.90;92.80
25360;DHT22;13311;51.386;0.016;2022-09-23T02:22:05;18.80;93.10
25360;DHT22;13311;51.386;0.016;2022-09-23T02:32:51;18.80;93.20
25360;DHT22;13311;51.386;0.016;2022-09-23T02:38:28;18.80;93.30
25360;DHT22;13311;51.386;0.016;2022-09-23T02:54:17;18.70;93.60
25360;DHT22;13311;51.386;0.016;2022-09-23T02:59:23;18.70;93.60
25360;DHT22;13311;51.386;0.016;2022-09-23T03:15:40;18.80;93.50
25360;DHT22;13311;51.386;0.016;2022-09-23T03:26:35;18.70;93.60
25360;DHT22;13311;51.386;0.016;2022-09-23T03:31:38;18.60;93.80
25360;DHT22;13311;51.386;0.016;2022-09-23T03:36:53;18.50;94.00
25360;DHT22;13311;51.386;0.016;2022-09-23T03:42:24;18.50;94.10
25360;DHT22;13311;51.386;0.016;2022-09-23T03:47:27;18.50;94.10
25360;DHT22;13311;51.386;0.016;2022-09-23T03:52:28;18.60;94.00
25360;DHT22;13311;51.386;0.016;2022-09-23T03:57:28;18.60;93.90
25360;DHT22;13311;51.386;0.016;2022-09-23T04:02:29;18.60;94.00
25360;DHT22;13311;51.386;0.016;2022-09-23T04:07:30;18.60;94.10
25360;DHT22;13311;51.386;0.016;2022-09-23T04:12:31;18.50;94.10
25360;DHT22;13311;51.386;0.016;2022-09-23T04:17:32;18.50;94.20
25360;DHT22;13311;51.386;0.016;2022-09-23T04:22:33;18.50;94.30
25360;DHT22;13311;51.386;0.016;2022-09-23T04:27:34;18.50;94.30
25360;DHT22;13311;51.386;0.016;2022-09-23T04:32:35;18.50;94.40
25360;DHT22;13311;51.386;0.016;2022-09-23T04:37:35;18.50;94.30
25360;DHT22;13311;51.386;0.016;2022-09-23T04:42:36;18.50;94.30
25360;DHT22;13311;51.386;0.016;2022-09-23T04:47:37;18.50;94.30
25360;DHT22;13311;51.386;0.016;2022-09-23T04:52:38;18.60;94.30
25360;DHT22;13311;51.386;0.016;2022-09-23T04:57:38;18.60;94.30
25360;DHT22;13311;51.386;0.016;2022-09-23T05:02:46;18.60;94.40
25360;DHT22;13311;51.386;0.016;2022-09-23T05:07:48;18.60;94.30
25360;DHT22;13311;51.386;0.016;2022-09-23T05:12:49;18.60;94.30
25360;DHT22;13311;51.386;0.016;2022-09-23T05:17:50;18.60;94.40
25360;DHT22;13311;51.386;0.016;2022-09-23T05:22:51;18.60;94.50
25360;DHT22;13311;51.386;0.016;2022-09-23T05:27:54;18.60;94.50
25360;DHT22;13311;51.386;0.016;2022-09-23T05:32:55;18.60;94.50
25360;DHT22;13311;51.386;0.016;2022-09-23T05:37:56;18.70;94.50
25360;DHT22;13311;51.386;0.016;2022-09-23T05:42:57;18.70;94.40
25360;DHT22;13311;51.386;0.016;2022-09-23T05:47:57;18.70;94.40
25360;DHT22;13311;51.386;0.016;2022-09-23T05:52:58;18.80;94.40
25360;DHT22;13311;51.386;0.016;2022-09-23T05:57:59;18.80;94.40
25360;DHT22;13311;51.386;0.016;2022-09-23T06:02:59;18.90;94.40
25360;DHT22;13311;51.386;0.016;2022-09-23T06:08:00;18.90;94.50
25360;DHT22;13311;51.386;0.016;2022-09-23T06:13:01;18.80;94.60
25360;DHT22;13311;51.386;0.016;2022-09-23T06:18:03;18.80;94.80
25360;DHT22;13311;51.386;0.016;2022-09-23T06:23:06;18.70;95.70
25360;DHT22;13311;51.386;0.016;2022-09-23T06:28:09;18.50;96.30
25360;DHT22;13311;51.386;0.016;2022-09-23T06:33:11;18.40;97.00
25360;DHT22;13311;51.386;0.016;2022-09-23T06:38:12;18.30;97.30
25360;DHT22;13311;51.386;0.016;2022-09-23T06:43:12;18.40;97.50
25360;DHT22;13311;51.386;0.016;2022-09-23T06:48:13;18.40;97.60
25360;DHT22;13311;51.386;0.016;2022-09-23T06:53:15;18.30;97.80
25360;DHT22;13311;51.386;0.016;2022-09-23T06:58:16;18.30;98.00
25360;DHT22;13311;51.386;0.016;2022-09-23T07:03:16;18.30;98.20
25360;DHT22;13311;51.386;0.016;2022-09-23T07:08:17;18.20;98.50
25360;DHT22;13311;51.386;0.016;2022-09-23T07:13:18;18.30;98.70
25360;DHT22;13311;51.386;0.016;2022-09-23T07:18:20;18.40;98.70
25360;DHT22;13311;51.386;0.016;2022-09-23T07:23:24;18.30;98.80
25360;DHT22;13311;51.386;0.016;2022-09-23T07:28:25;18.40;99.00
25360;DHT22;13311;51.386;0.016;2022-09-23T07:33:28;18.60;98.90
25360;DHT22;13311;51.386;0.016;2022-09-23T07:38:31;18.60;98.80
25360;DHT22;13311;51.386;0.016;2022-09-23T07:43:32;18.80;98.60
25360;DHT22;13311;51.386;0.016;2022-09-23T07:48:34;18.90;98.50
25360;DHT22;13311;51.386;0.016;2022-09-23T07:53:36;19.10;98.40
25360;DHT22;13311;51.386;0.016;2022-09-23T07:58:37;19.20;98.20
25360;DHT22;13311;51.386;0.016;2022-09-23T08:03:38;19.20;97.90
25360;DHT22;13311;51.386;0.016;2022-09-23T08:08:40;19.30;98.00
25360;DHT22;13311;51.386;0.016;2022-09-23T08:13:44;19.30;97.90
25360;DHT22;13311;51.386;0.016;2022-09-23T08:18:45;19.40;97.80
25360;DHT22;13311;51.386;0.016;2022-09-23T08:23:46;19.40;97.70
25360;DHT22;13311;51.386;0.016;2022-09-23T08:28:47;19.30;97.70
25360;DHT22;13311;51.386;0.016;2022-09-23T08:33:55;19.40;97.90
25360;DHT22;13311;51.386;0.016;2022-09-23T08:38:57;19.40;97.80
25360;DHT22;13311;51.386;0.016;2022-09-23T08:44:20;19.50;98.10
25360;DHT22;13311;51.386;0.016;2022-09-23T08:55:11;19.70;97.90
25360;DHT22;13311;51.386;0.016;2022-09-23T09:00:18;19.80;97.70
25360;DHT22;13311;51.386;0.016;2022-09-23T09:05:24;19.90;97.60
25360;DHT22;13311;51.386;0.016;2022-09-23T09:10:34;20.00;97.50
25360;DHT22;13311;51.386;0.016;2022-09-23T09:15:55;20.00;97.30
25360;DHT22;13311;51.386;0.016;2022-09-23T09:21:11;20.10;97.40
25360;DHT22;13311;51.386;0.016;2022-09-23T09:26:20;20.20;97.40
25360;DHT22;13311;51.386;0.016;2022-09-23T09:31:44;20.20;97.30
25360;DHT22;13311;51.386;0.016;2022-09-23T09:42:36;20.40;96.90
25360;DHT22;13311;51.386;0.016;2022-09-23T09:47:54;20.50;94.90
25360;DHT22;13311;51.386;0.016;2022-09-23T09:53:32;20.50;94.80
25360;DHT22;13311;51.386;0.016;2022-09-23T10:03:46;20.10;95.40
25360;DHT22;13311;51.386;0.016;2022-09-23T10:14:14;20.00;96.00
25360;DHT22;13311;51.386;0.016;2022-09-23T10:19:28;19.90;96.30
25360;DHT22;13311;51.386;0.016;2022-09-23T10:24:30;19.90;96.40
25360;DHT22;13311;51.386;0.016;2022-09-23T10:34:57;20.10;96.20
25360;DHT22;13311;51.386;0.016;2022-09-23T10:46:04;20.20;95.40
25360;DHT22;13311;51.386;0.016;2022-09-23T11:35:23;20.70;94.20
25360;DHT22;13311;51.386;0.016;2022-09-23T11:40:43;20.90;93.60
25360;DHT22;13311;51.386;0.016;2022-09-23T11:45:46;21.00;92.60
25360;DHT22;13311;51.386;0.016;2022-09-23T11:51:15;20.90;93.20
25360;DHT22;13311;51.386;0.016;2022-09-23T11:56:29;20.90;92.90
25360;DHT22;13311;51.386;0.016;2022-09-23T12:01:48;20.90;92.80
25360;DHT22;13311;51.386;0.016;2022-09-23T12:07:13;20.90;92.80
25360;DHT22;13311;51.386;0.016;2022-09-23T12:18:06;21.10;91.30
25360;DHT22;13311;51.386;0.016;2022-09-23T12:29:17;21.10;90.90
25360;DHT22;13311;51.386;0.016;2022-09-23T12:34:41;20.90;90.70
25360;DHT22;13311;51.386;0.016;2022-09-23T12:39:48;21.00;91.20
25360;DHT22;13311;51.386;0.016;2022-09-23T12:44:50;21.00;91.30
25360;DHT22;13311;51.386;0.016;2022-09-23T12:49:51;21.10;90.90
25360;DHT22;13311;51.386;0.016;2022-09-23T13:00:34;21.20;90.50
25360;DHT22;13311;51.386;0.016;2022-09-23T13:05:47;21.40;90.30
25360;DHT22;13311;51.386;0.016;2022-09-23T13:11:20;21.40;89.40
25360;DHT22;13311;51.386;0.016;2022-09-23T13:16:35;21.20;89.90
25360;DHT22;13311;51.386;0.016;2022-09-23T13:26:56;21.40;89.00
25360;DHT22;13311;51.386;0.016;2022-09-23T13:32:13;21.20;88.70
25360;DHT22;13311;51.386;0.016;2022-09-23T13:37:19;21.20;88.80
25360;DHT22;13311;51.386;0.016;2022-09-23T13:42:27;21.40;87.90
25360;DHT22;13311;51.386;0.016;2022-09-23T13:47:29;21.50;87.30
25360;DHT22;13311;51.386;0.016;2022-09-23T13:52:31;21.60;86.70
25360;DHT22;13311;51.386;0.016;2022-09-23T13:57:33;21.60;85.90
25360;DHT22;13311;51.386;0.016;2022-09-23T14:02:43;21.80;84.90
25360;DHT22;13311;51.386;0.016;2022-09-23T14:07:47;21.80;83.40
25360;DHT22;13311;51.386;0.016;2022-09-23T14:12:50;21.70;82.60
25360;DHT22;13311;51.386;0.016;2022-09-23T14:18:04;21.70;84.40
25360;DHT22;13311;51.386;0.016;2022-09-23T14:23:10;21.80;85.00
25360;DHT22;13311;51.386;0.016;2022-09-23T14:28:21;21.90;84.80
25360;DHT22;13311;51.386;0.016;2022-09-23T14:33:26;22.10;83.90
25360;DHT22;13311;51.386;0.016;2022-09-23T14:38:30;22.10;83.70
25360;DHT22;13311;51.386;0.016;2022-09-23T14:44:00;22.30;83.70
25360;DHT22;13311;51.386;0.016;2022-09-23T14:49:06;22.40;83.40
25360;DHT22;13311;51.386;0.016;2022-09-23T15:00:07;22.20;82.80
25360;DHT22;13311;51.386;0.016;2022-09-23T15:10:20;22.00;83.50
25360;DHT22;13311;51.386;0.016;2022-09-23T15:15:25;21.80;83.60
25360;DHT22;13311;51.386;0.016;2022-09-23T15:20:33;21.60;84.00
25360;DHT22;13311;51.386;0.016;2022-09-23T15:25:39;21.40;85.20
25360;DHT22;13311;51.386;0.016;2022-09-23T15:30:40;21.30;85.30
25360;DHT22;13311;51.386;0.016;2022-09-23T15:35:44;21.30;86.40
25360;DHT22;13311;51.386;0.016;2022-09-23T15:40:46;21.40;86.20
25360;DHT22;13311;51.386;0.016;2022-09-23T15:45:50;21.60;86.10
25360;DHT22;13311;51.386;0.016;2022-09-23T15:50:53;21.70;84.60
25360;DHT22;13311;51.386;0.016;2022-09-23T15:55:54;21.70;84.40
25360;DHT22;13311;51.386;0.016;2022-09-23T16:00:58;21.50;84.50
25360;DHT22;13311;51.386;0.016;2022-09-23T16:06:00;21.40;85.20
25360;DHT22;13311;51.386;0.016;2022-09-23T16:11:02;21.30;85.30
25360;DHT22;13311;51.386;0.016;2022-09-23T16:16:05;21.30;85.40
25360;DHT22;13311;51.386;0.016;2022-09-23T16:21:10;21.30;86.20
25360;DHT22;13311;51.386;0.016;2022-09-23T16:26:19;21.40;85.20
25360;DHT22;13311;51.386;0.016;2022-09-23T16:31:22;21.40;85.30
25360;DHT22;13311;51.386;0.016;2022-09-23T16:36:25;21.30;85.20
25360;DHT22;13311;51.386;0.016;2022-09-23T16:41:29;21.20;85.30
25360;DHT22;13311;51.386;0.016;2022-09-23T16:46:33;21.20;85.40
25360;DHT22;13311;51.386;0.016;2022-09-23T16:51:34;21.00;85.70
25360;DHT22;13311;51.386;0.016;2022-09-23T16:56:39;20.90;85.40
25360;DHT22;13311;51.386;0.016;2022-09-23T17:02:07;20.90;85.90
25360;DHT22;13311;51.386;0.016;2022-09-23T17:07:36;20.90;85.80
25360;DHT22;13311;51.386;0.016;2022-09-23T17:12:37;20.70;86.10
25360;DHT22;13311;51.386;0.016;2022-09-23T17:17:38;20.70;86.40
25360;DHT22;13311;51.386;0.016;2022-09-23T17:22:40;20.60;86.80
25360;DHT22;13311;51.386;0.016;2022-09-23T17:27:41;20.60;87.10
25360;DHT22;13311;51.386;0.016;2022-09-23T17:32:42;20.60;87.20
25360;DHT22;13311;51.386;0.016;2022-09-23T17:37:42;20.60;87.10
25360;DHT22;13311;51.386;0.016;2022-09-23T17:42:43;20.50;87.10
25360;DHT22;13311;51.386;0.016;2022-09-23T17:47:53;20.40;87.50
25360;DHT22;13311;51.386;0.016;2022-09-23T17:53:29;20.40;87.40
25360;DHT22;13311;51.386;0.016;2022-09-23T17:58:36;20.30;87.40
25360;DHT22;13311;51.386;0.016;2022-09-23T18:03:40;20.20;88.00
25360;DHT22;13311;51.386;0.016;2022-09-23T18:08:44;20.20;88.80
25360;DHT22;13311;51.386;0.016;2022-09-23T18:13:57;20.10;89.10
25360;DHT22;13311;51.386;0.016;2022-09-23T18:19:06;20.10;88.80
25360;DHT22;13311;51.386;0.016;2022-09-23T18:24:10;20.20;88.50
25360;DHT22;13311;51.386;0.016;2022-09-23T18:29:11;20.10;88.20
25360;DHT22;13311;51.386;0.016;2022-09-23T18:34:13;20.10;88.00
25360;DHT22;13311;51.386;0.016;2022-09-23T18:39:18;20.10;88.10
25360;DHT22;13311;51.386;0.016;2022-09-23T18:44:19;20.10;88.20
25360;DHT22;13311;51.386;0.016;2022-09-23T18:49:19;20.10;88.40
25360;DHT22;13311;51.386;0.016;2022-09-23T18:54:39;20.00;88.70
25360;DHT22;13311;51.386;0.016;2022-09-23T18:59:39;20.00;88.30
25360;DHT22;13311;51.386;0.016;2022-09-23T19:04:40;20.10;88.20
25360;DHT22;13311;51.386;0.016;2022-09-23T19:09:41;20.10;87.80
25360;DHT22;13311;51.386;0.016;2022-09-23T19:14:42;20.10;87.60
25360;DHT22;13311;51.386;0.016;2022-09-23T19:19:44;19.90;87.80
25360;DHT22;13311;51.386;0.016;2022-09-23T19:24:45;20.00;87.60
25360;DHT22;13311;51.386;0.016;2022-09-23T19:29:46;20.10;87.50
25360;DHT22;13311;51.386;0.016;2022-09-23T19:34:47;20.10;87.00
25360;DHT22;13311;51.386;0.016;2022-09-23T19:39:48;20.10;86.70
25360;DHT22;13311;51.386;0.016;2022-09-23T19:44:49;19.90;86.60
25360;DHT22;13311;51.386;0.016;2022-09-23T19:49:50;19.70;87.00
25360;DHT22;13311;51.386;0.016;2022-09-23T19:54:50;19.70;87.20
25360;DHT22;13311;51.386;0.016;2022-09-23T19:59:51;19.70;87.70
25360;DHT22;13311;51.386;0.016;2022-09-23T20:04:52;19.70;87.10
25360;DHT22;13311;51.386;0.016;2022-09-23T20:09:52;19.70;87.10
25360;DHT22;13311;51.386;0.016;2022-09-23T20:14:55;19.70;87.20
25360;DHT22;13311;51.386;0.016;2022-09-23T20:19:58;19.60;87.00
25360;DHT22;13311;51.386;0.016;2022-09-23T20:24:59;19.60;87.20
25360;DHT22;13311;51.386;0.016;2022-09-23T20:30:01;19.60;87.20
25360;DHT22;13311;51.386;0.016;2022-09-23T20:35:03;19.50;87.10
25360;DHT22;13311;51.386;0.016;2022-09-23T20:40:05;19.40;87.40
25360;DHT22;13311;51.386;0.016;2022-09-23T20:45:29;19.40;87.60
25360;DHT22;13311;51.386;0.016;2022-09-23T20:50:29;19.40;87.70
25360;DHT22;13311;51.386;0.016;2022-09-23T20:55:30;19.30;87.90
25360;DHT22;13311;51.386;0.016;2022-09-23T21:00:31;19.20;88.30
25360;DHT22;13311;51.386;0.016;2022-09-23T21:05:33;19.20;88.70
25360;DHT22;13311;51.386;0.016;2022-09-23T21:10:35;19.20;88.80
25360;DHT22;13311;51.386;0.016;2022-09-23T21:15:36;19.10;88.80
25360;DHT22;13311;51.386;0.016;2022-09-23T21:20:37;19.20;88.50
25360;DHT22;13311;51.386;0.016;2022-09-23T21:25:38;19.10;88.50
25360;DHT22;13311;51.386;0.016;2022-09-23T21:30:39;19.00;88.30
25360;DHT22;13311;51.386;0.016;2022-09-23T21:35:41;18.90;88.10
25360;DHT22;13311;51.386;0.016;2022-09-23T21:40:42;18.90;88.40
25360;DHT22;13311;51.386;0.016;2022-09-23T21:46:03;18.80;88.40
25360;DHT22;13311;51.386;0.016;2022-09-23T21:51:36;18.70;88.90
25360;DHT22;13311;51.386;0.016;2022-09-23T21:56:39;18.80;88.50
25360;DHT22;13311;51.386;0.016;2022-09-23T22:01:42;18.70;88.10
25360;DHT22;13311;51.386;0.016;2022-09-23T22:06:44;18.70;87.80
25360;DHT22;13311;51.386;0.016;2022-09-23T22:11:46;18.70;87.60
25360;DHT22;13311;51.386;0.016;2022-09-23T22:17:09;18.50;87.80
25360;DHT22;13311;51.386;0.016;2022-09-23T22:22:12;18.50;88.30
25360;DHT22;13311;51.386;0.016;2022-09-23T22:27:16;18.50;88.00
25360;DHT22;13311;51.386;0.016;2022-09-23T22:32:18;18.30;88.30
25360;DHT22;13311;51.386;0.016;2022-09-23T22:37:38;18.20;88.90
25360;DHT22;13311;51.386;0.016;2022-09-23T22:42:39;18.20;89.50
25360;DHT22;13311;51.386;0.016;2022-09-23T22:47:41;18.10;89.80
25360;DHT22;13311;51.386;0.016;2022-09-23T22:52:44;18.00;90.10
25360;DHT22;13311;51.386;0.016;2022-09-23T22:57:45;17.90;90.20
25360;DHT22;13311;51.386;0.016;2022-09-23T23:02:55;17.80;90.40
25360;DHT22;13311;51.386;0.016;2022-09-23T23:07:57;17.80;90.80
25360;DHT22;13311;51.386;0.016;2022-09-23T23:13:01;17.70;90.70
25360;DHT22;13311;51.386;0.016;2022-09-23T23:18:15;17.80;90.60
25360;DHT22;13311;51.386;0.016;2022-09-23T23:23:16;17.70;90.70
25360;DHT22;13311;51.386;0.016;2022-09-23T23:28:17;17.60;90.90
25360;DHT22;13311;51.386;0.016;2022-09-23T23:33:17;17.50;91.10
25360;DHT22;13311;51.386;0.016;2022-09-23T23:38:18;17.40;91.20
25360;DHT22;13311;51.386;0.016;2022-09-23T23:43:19;17.40;91.30
25360;DHT22;13311;51.386;0.016;2022-09-23T23:48:20;17.30;91.40
25360;DHT22;13311;51.386;0.016;2022-09-23T23:53:25;17.20;91.50
25360;DHT22;13311;51.386;0.016;2022-09-23T23:58:29;17.20;91.60
